Ana Sayfa
METAR-TAF:

METAR-TAF

Havaalanları :

Phu Quoc, Vietnam

Enlem: 10-10-18N, Boylam: 103-59-28E, yükseklik: 11 m

Güncel hava durumu gözlemi

Rapor saat 09:30 UTC de 28 dakika önce yapıldı.
Rüzgar güney/güneybatıdan 9 kt
Sıcaklık 31°C
Nem 63%
Basınç 1007 hPa
Görüş mesafesi 10 km veya daha fazla
1700 ft yükseklikte az bulutlu

METAR: VVPQ 280930Z 20009KT 9999 FEW017 31/23 Q1007 NOSIG

Saat: 16:58 (09:58 UTC)

Tahmin

Rapor saat 05:00 UTC de 4 saat ve 58 dakika önce yapıldı.
Ayın 28'si saat 06 UTC'den ayın 29'si saat 06 UTC'ye kadar geçerli Tahmin
Rüzgar güney/güneybatıdan 8 kt
Görüş mesafesi 10 km veya daha fazla
1500 ft yükseklikte parçalı bulutlu

TAF: VVPQ 280500Z 2806/2906 20008KT 9999 SCT015

4.000'den fazla havaalanı için hava durumu gözlemleri ve tahminleri (METAR ve TAF raporları).

Kullanılabilir istasyonlar harita üzerinde sarı ve kırmızı noktalarla gösterilir.

İstasyonun adını görmek için fareyi noktanın üzerinde gezdirin.

Sonrasında hava gözlem ve tahminlerini görmek için tıklayın.

Haritayı değiştirmek için: yaklaştırmak için siyah artı işaretli yeşil düğmeye ve uzaklaştırmak için de eksi işaretli düğmeye hızla tıklayın; bitişik haritalar için yeşil okları kullanın.


METAR-TAF: